createdAt,value
2023-09-16T00:01:34.753Z,94958.31
2023-09-16T00:04:43.501Z,94953.97
2023-09-16T00:07:52.408Z,94958.94
2023-09-16T00:11:01.840Z,94955.25
2023-09-16T00:14:11.745Z,94959.84
2023-09-16T00:17:20.625Z,94957.13
2023-09-16T00:20:29.652Z,94958.56
2023-09-16T00:23:38.186Z,94962.50
2023-09-16T00:26:46.714Z,94968.47
2023-09-16T00:29:56.709Z,94962.09
2023-09-16T00:33:06.617Z,94961.63
2023-09-16T00:36:15.258Z,94955.31
2023-09-16T00:39:24.260Z,94951.25
2023-09-16T00:42:32.894Z,94941.59
2023-09-16T00:45:43.614Z,94942.44
2023-09-16T00:48:52.593Z,94939.16
2023-09-16T00:52:01.488Z,94948.19
2023-09-16T00:55:11.144Z,94951.06
2023-09-16T00:58:19.995Z,94941.41
2023-09-16T01:01:31.177Z,94953.13
2023-09-16T01:04:42.139Z,94959.91
2023-09-16T01:07:51.510Z,94961.16
2023-09-16T01:11:00.418Z,94963.44
2023-09-16T01:14:12.250Z,94964.47
2023-09-16T01:17:33.662Z,94962.44
2023-09-16T01:20:43.215Z,94965.94
2023-09-16T01:24:06.755Z,94960.41
2023-09-16T01:27:16.730Z,94963.09
2023-09-16T01:30:28.814Z,94953.03
2023-09-16T01:33:42.363Z,94957.13
2023-09-16T01:36:53.642Z,94957.53
2023-09-16T01:40:11.556Z,94940.91
2023-09-16T01:43:22.780Z,94945.59
2023-09-16T01:46:31.564Z,94946.66
2023-09-16T01:49:40.064Z,94944.41
2023-09-16T01:52:49.876Z,94944.22
2023-09-16T01:55:58.433Z,94938.31
2023-09-16T01:59:08.666Z,94950.22
2023-09-16T02:02:17.369Z,94952.06
2023-09-16T02:05:26.264Z,94947.56
2023-09-16T02:08:38.108Z,94943.88
2023-09-16T02:11:46.722Z,94943.69
2023-09-16T02:14:57.503Z,94940.41
2023-09-16T02:18:07.320Z,94945.09
2023-09-16T02:21:16.423Z,94951.31
2023-09-16T02:24:55.942Z,94945.97
2023-09-16T02:28:05.146Z,94956.03
2023-09-16T02:31:16.737Z,94948.19
2023-09-16T02:34:25.503Z,94952.50
2023-09-16T02:37:34.266Z,94947.78
2023-09-16T02:40:43.441Z,94953.94
2023-09-16T02:43:54.207Z,94951.06
2023-09-16T02:47:04.737Z,94946.09
2023-09-16T02:50:13.847Z,94950.84
2023-09-16T02:53:22.961Z,94953.53
2023-09-16T02:56:32.122Z,94958.84
2023-09-16T02:59:41.264Z,94945.91
2023-09-16T03:02:51.647Z,94947.78
2023-09-16T03:06:00.538Z,94953.56
2023-09-16T03:09:09.424Z,94953.97
2023-09-16T03:12:18.413Z,94953.16
2023-09-16T03:15:29.015Z,94949.88
2023-09-16T03:18:39.259Z,94958.09
2023-09-16T03:21:47.949Z,94957.25
2023-09-16T03:24:56.836Z,94965.03
2023-09-16T03:28:06.058Z,94947.22
2023-09-16T03:31:15.693Z,94949.47
2023-09-16T03:34:26.324Z,94943.31
2023-09-16T03:37:35.282Z,94946.41
2023-09-16T03:40:46.279Z,94951.94
2023-09-16T03:43:55.162Z,94943.53
2023-09-16T03:47:07.789Z,94938.00
2023-09-16T03:50:20.581Z,94950.50
2023-09-16T03:53:40.210Z,94938.00
2023-09-16T03:56:51.410Z,94938.81
2023-09-16T04:00:00.473Z,94939.22
2023-09-16T04:03:10.412Z,94941.28
2023-09-16T04:06:21.833Z,94941.28
2023-09-16T04:09:30.681Z,94942.91
2023-09-16T04:12:40.602Z,94937.19
2023-09-16T04:15:49.580Z,94942.91
2023-09-16T04:18:59.585Z,94942.50
2023-09-16T04:22:10.543Z,94940.03
2023-09-16T04:25:19.829Z,94945.81
2023-09-16T04:28:28.965Z,94947.03
2023-09-16T04:31:37.777Z,94946.19
2023-09-16T04:34:46.396Z,94950.31
2023-09-16T04:37:56.779Z,94950.91
2023-09-16T04:41:06.681Z,94944.56
2023-09-16T04:44:18.111Z,94943.53
2023-09-16T04:47:29.394Z,94939.25
2023-09-16T04:50:42.194Z,94940.06
2023-09-16T04:53:53.408Z,94935.56
2023-09-16T04:57:04.773Z,94938.41
2023-09-16T05:00:14.993Z,94947.84
2023-09-16T05:03:23.986Z,94933.69
2023-09-16T05:06:32.703Z,94927.72
2023-09-16T05:09:42.721Z,94935.94
2023-09-16T05:12:51.794Z,94934.31
2023-09-16T05:16:03.060Z,94936.56
2023-09-16T05:19:12.013Z,94934.50
2023-09-16T05:22:20.775Z,94926.91
2023-09-16T05:25:31.133Z,94936.38
2023-09-16T05:28:40.527Z,94936.75
2023-09-16T05:31:51.277Z,94941.25
2023-09-16T05:35:00.449Z,94932.22
2023-09-16T05:38:09.792Z,94939.19
2023-09-16T05:41:20.192Z,94937.56
2023-09-16T05:44:30.947Z,94935.91
2023-09-16T05:47:42.085Z,94939.16
2023-09-16T05:50:58.496Z,94942.84
2023-09-16T05:54:08.577Z,94948.13
2023-09-16T05:57:20.053Z,94943.16
2023-09-16T06:00:30.589Z,94945.94
2023-09-16T06:03:39.537Z,94942.56
2023-09-16T06:06:50.392Z,94946.22
2023-09-16T06:09:59.871Z,94942.47
2023-09-16T06:13:11.429Z,94944.72
2023-09-16T06:16:20.704Z,94939.69
2023-09-16T06:19:31.217Z,94939.06
2023-09-16T06:22:41.295Z,94944.19
2023-09-16T06:25:51.224Z,94945.66
2023-09-16T06:29:02.027Z,94944.56
2023-09-16T06:32:11.605Z,94944.44
2023-09-16T06:35:20.340Z,94945.28
2023-09-16T06:38:29.730Z,94940.56
2023-09-16T06:41:38.496Z,94943.69
2023-09-16T06:44:57.166Z,94938.16
2023-09-16T06:48:09.856Z,94933.03
2023-09-16T06:51:18.570Z,94931.22
2023-09-16T06:54:27.136Z,94932.19
2023-09-16T06:57:35.716Z,94938.84
2023-09-16T07:00:45.855Z,94928.09
2023-09-16T07:03:54.622Z,94935.44
2023-09-16T07:07:03.313Z,94929.28
2023-09-16T07:10:12.573Z,94928.72
2023-09-16T07:13:21.237Z,94926.13
2023-09-16T07:16:41.591Z,94930.09
2023-09-16T07:19:51.351Z,94935.84
2023-09-16T07:23:00.284Z,94935.53
2023-09-16T07:26:09.294Z,94936.41
2023-09-16T07:29:19.531Z,94940.44
2023-09-16T07:32:30.234Z,94942.84
2023-09-16T07:35:38.932Z,94949.19
2023-09-16T07:38:47.634Z,94951.38
2023-09-16T07:41:56.922Z,94961.16
2023-09-16T07:45:05.891Z,94956.72
2023-09-16T07:48:15.892Z,94957.19
2023-09-16T07:51:24.494Z,94966.25
2023-09-16T07:54:33.750Z,94955.06
2023-09-16T07:57:42.440Z,94966.47
2023-09-16T08:00:51.744Z,94967.75
2023-09-16T08:04:01.999Z,94968.56
2023-09-16T08:07:10.753Z,94973.72
2023-09-16T08:10:21.478Z,94970.94
2023-09-16T08:13:30.062Z,94961.00
2023-09-16T08:16:38.992Z,94958.19
2023-09-16T08:19:48.999Z,94962.03
2023-09-16T08:22:58.142Z,94957.69
2023-09-16T08:26:07.473Z,94957.00
2023-09-16T08:29:16.102Z,94953.00
2023-09-16T08:32:27.402Z,94953.09
2023-09-16T08:35:37.618Z,94949.66
2023-09-16T08:38:46.322Z,94958.84
2023-09-16T08:42:01.359Z,94948.34
2023-09-16T08:45:15.075Z,94950.09
2023-09-16T08:48:27.515Z,94954.44
2023-09-16T08:51:41.252Z,94953.50
2023-09-16T08:54:51.904Z,94946.78
2023-09-16T08:58:11.167Z,94951.69
2023-09-16T09:01:20.306Z,94950.03
2023-09-16T09:04:29.563Z,94955.97
2023-09-16T09:07:42.328Z,94943.28
2023-09-16T09:10:51.155Z,94954.66
2023-09-16T09:14:01.515Z,94947.03
2023-09-16T09:17:12.521Z,94954.84
2023-09-16T09:20:24.039Z,94950.88
2023-09-16T09:23:34.033Z,94952.47
2023-09-16T09:26:42.823Z,94964.69
2023-09-16T09:29:51.415Z,94960.94
2023-09-16T09:33:01.305Z,94972.59
2023-09-16T09:36:14.018Z,94959.47
2023-09-16T09:39:24.041Z,94956.47
2023-09-16T09:42:32.580Z,94951.78
2023-09-16T09:45:44.070Z,94951.94
2023-09-16T09:48:52.889Z,94947.13
2023-09-16T09:52:02.174Z,94939.63
2023-09-16T09:55:12.551Z,94943.56
2023-09-16T09:58:21.224Z,94947.25
2023-09-16T10:01:35.302Z,94948.53
2023-09-16T10:04:44.057Z,94950.25
2023-09-16T10:07:54.118Z,94935.00
2023-09-16T10:11:04.271Z,94938.34
2023-09-16T10:14:12.963Z,94934.97
2023-09-16T10:17:24.300Z,94933.41
2023-09-16T10:20:37.113Z,94931.47
2023-09-16T10:23:47.798Z,94939.97
2023-09-16T10:26:59.666Z,94934.44
2023-09-16T10:30:10.048Z,94941.25
2023-09-16T10:33:19.078Z,94937.53
2023-09-16T10:36:28.709Z,94935.53
2023-09-16T10:39:39.845Z,94938.03
2023-09-16T10:42:52.492Z,94931.03
2023-09-16T10:46:02.382Z,94928.56
2023-09-16T10:49:11.042Z,94927.06
2023-09-16T10:52:27.172Z,94932.91
2023-09-16T10:55:40.879Z,94923.84
2023-09-16T10:58:52.979Z,94938.78
2023-09-16T11:02:08.806Z,94937.03
2023-09-16T11:05:17.552Z,94936.09
2023-09-16T11:08:27.117Z,94940.03
2023-09-16T11:11:37.184Z,94942.03
2023-09-16T11:14:48.395Z,94935.91
2023-09-16T11:18:03.889Z,94928.38
2023-09-16T11:21:16.608Z,94930.38
2023-09-16T11:24:26.277Z,94927.47
2023-09-16T11:27:35.998Z,94928.84
2023-09-16T11:30:56.781Z,94921.44
2023-09-16T11:34:10.535Z,94923.06
2023-09-16T11:37:25.829Z,94913.81
2023-09-16T11:40:35.943Z,94917.41
2023-09-16T11:43:45.000Z,94909.81
2023-09-16T11:46:56.575Z,94904.09
2023-09-16T11:50:10.218Z,94903.09
2023-09-16T11:53:19.658Z,94890.09
2023-09-16T11:56:30.948Z,94892.03
2023-09-16T11:59:39.973Z,94886.19
2023-09-16T12:02:51.292Z,94883.09
2023-09-16T12:06:00.703Z,94876.91
2023-09-16T12:09:11.000Z,94879.03
2023-09-16T12:12:20.591Z,94878.09
2023-09-16T12:15:32.583Z,94885.84
2023-09-16T12:18:43.081Z,94878.91
2023-09-16T12:21:52.647Z,94880.75
2023-09-16T12:25:01.493Z,94882.59
2023-09-16T12:28:12.279Z,94881.41
2023-09-16T12:31:25.446Z,94863.91
2023-09-16T12:34:36.420Z,94867.88
2023-09-16T12:37:46.434Z,94865.22
2023-09-16T12:40:55.579Z,94867.34
2023-09-16T12:44:04.490Z,94861.97
2023-09-16T12:47:15.182Z,94869.19
2023-09-16T12:50:27.388Z,94862.03
2023-09-16T12:53:36.249Z,94862.09
2023-09-16T12:56:50.683Z,94862.34
2023-09-16T13:00:04.428Z,94854.88
2023-09-16T13:03:14.170Z,94846.56
2023-09-16T13:06:24.941Z,94845.75
2023-09-16T13:09:33.945Z,94846.47
2023-09-16T13:12:43.932Z,94839.50
2023-09-16T13:15:55.103Z,94837.41
2023-09-16T13:19:04.330Z,94840.44
2023-09-16T13:22:15.539Z,94846.13
2023-09-16T13:25:33.706Z,94837.38
2023-09-16T13:28:56.274Z,94832.84
2023-09-16T13:32:05.911Z,94840.03
2023-09-16T13:35:15.186Z,94825.22
2023-09-16T13:38:25.361Z,94829.56
2023-09-16T13:41:34.174Z,94829.78
2023-09-16T13:44:47.527Z,94828.97
2023-09-16T13:48:14.482Z,94825.41
2023-09-16T13:51:23.492Z,94820.25
2023-09-16T13:54:34.213Z,94825.47
2023-09-16T13:57:42.901Z,94820.63
2023-09-16T14:00:51.871Z,94822.97
2023-09-16T14:04:05.055Z,94815.75
2023-09-16T14:07:13.743Z,94811.22
2023-09-16T14:10:26.310Z,94822.94
2023-09-16T14:13:35.447Z,94818.28
2023-09-16T14:16:45.402Z,94822.53
2023-09-16T14:19:54.811Z,94826.09
2023-09-16T14:23:06.331Z,94817.63
2023-09-16T14:26:16.742Z,94811.59
2023-09-16T14:29:25.629Z,94814.19
2023-09-16T14:32:34.269Z,94812.66
2023-09-16T14:35:44.029Z,94811.88
2023-09-16T14:38:54.052Z,94817.94
2023-09-16T14:42:05.464Z,94820.97
2023-09-16T14:45:14.989Z,94820.88
2023-09-16T14:48:23.792Z,94818.16
2023-09-16T14:51:36.471Z,94819.19
2023-09-16T14:54:45.976Z,94815.66
2023-09-16T14:57:56.447Z,94817.66
2023-09-16T15:01:07.229Z,94819.56
2023-09-16T15:04:18.131Z,94821.03
2023-09-16T15:11:50.931Z,94810.31
2023-09-16T15:15:02.840Z,94818.66
2023-09-16T15:18:19.275Z,94821.19
2023-09-16T15:21:29.244Z,94823.84
2023-09-16T15:24:50.824Z,94823.56
2023-09-16T15:28:04.711Z,94819.56
2023-09-16T15:31:15.837Z,94823.69
2023-09-16T15:34:28.541Z,94814.78
2023-09-16T15:37:40.604Z,94820.63
2023-09-16T15:40:52.787Z,94824.69
2023-09-16T15:44:03.903Z,94826.06
2023-09-16T15:47:15.311Z,94822.53
2023-09-16T15:50:25.069Z,94829.91
2023-09-16T15:53:34.784Z,94826.16
2023-09-16T15:56:44.472Z,94824.19
2023-09-16T15:59:58.557Z,94830.16
2023-09-16T16:03:09.743Z,94829.13
2023-09-16T16:06:28.279Z,94827.78
2023-09-16T16:09:45.382Z,94826.00
2023-09-16T16:12:55.912Z,94828.03
2023-09-16T16:16:05.724Z,94834.41
2023-09-16T16:19:20.283Z,94829.72
2023-09-16T16:22:29.871Z,94837.41
2023-09-16T16:25:45.593Z,94836.66
2023-09-16T16:28:58.337Z,94832.91
2023-09-16T16:32:17.137Z,94843.59
2023-09-16T16:35:27.509Z,94834.09
2023-09-16T16:38:36.472Z,94833.78
2023-09-16T16:41:45.733Z,94837.38
2023-09-16T16:44:54.391Z,94835.25
2023-09-16T16:48:03.154Z,94836.19
2023-09-16T16:51:14.823Z,94833.53
2023-09-16T16:54:23.824Z,94839.31
2023-09-16T16:57:32.760Z,94831.72
2023-09-16T17:00:42.008Z,94835.88
2023-09-16T17:03:51.016Z,94833.47
2023-09-16T17:07:01.905Z,94841.91
2023-09-16T17:10:11.063Z,94843.28
2023-09-16T17:13:19.982Z,94841.41
2023-09-16T17:16:28.737Z,94848.44
2023-09-16T17:19:37.680Z,94845.19
2023-09-16T17:22:47.831Z,94854.34
2023-09-16T17:25:57.140Z,94848.88
2023-09-16T17:29:05.835Z,94846.69
2023-09-16T17:32:14.513Z,94847.44
2023-09-16T17:35:23.615Z,94858.47
2023-09-16T17:38:34.770Z,94854.03
2023-09-16T17:41:44.169Z,94860.50
2023-09-16T17:44:52.990Z,94858.78
2023-09-16T17:48:01.732Z,94860.34
2023-09-16T17:51:11.313Z,94866.25
2023-09-16T17:54:21.202Z,94869.50
2023-09-16T17:57:29.861Z,94870.25
2023-09-16T18:00:39.257Z,94878.81
2023-09-16T18:03:48.910Z,94876.81
2023-09-16T18:06:57.555Z,94869.16
2023-09-16T18:10:11.496Z,94880.09
2023-09-16T18:13:21.395Z,94882.91
2023-09-16T18:16:32.254Z,94878.47
2023-09-16T18:19:40.881Z,94885.91
2023-09-16T18:22:49.438Z,94892.25
2023-09-16T18:25:59.479Z,94906.75
2023-09-16T18:29:08.368Z,94909.88
2023-09-16T18:32:17.252Z,94905.16
2023-09-16T18:35:27.745Z,94909.91
2023-09-16T18:38:36.829Z,94913.88
2023-09-16T18:41:46.960Z,94912.19
2023-09-16T18:44:55.578Z,94914.22
2023-09-16T18:48:05.083Z,94923.53
2023-09-16T18:51:14.391Z,94919.72
2023-09-16T18:54:23.032Z,94917.22
2023-09-16T18:57:33.153Z,94922.50
2023-09-16T19:00:45.818Z,94927.03
2023-09-16T19:03:54.964Z,94926.44
2023-09-16T19:07:04.724Z,94927.19
2023-09-16T19:10:16.426Z,94921.66
2023-09-16T19:13:27.037Z,94925.56
2023-09-16T19:16:38.236Z,94926.31
2023-09-16T19:19:46.983Z,94926.69
2023-09-16T19:22:55.762Z,94926.59
2023-09-16T19:26:06.851Z,94924.31
2023-09-16T19:29:16.984Z,94930.91
2023-09-16T19:32:25.980Z,94929.19
2023-09-16T19:35:34.737Z,94931.53
2023-09-16T19:38:43.794Z,94934.47
2023-09-16T19:41:52.402Z,94930.88
2023-09-16T19:45:03.571Z,94933.97
2023-09-16T19:48:12.848Z,94930.97
2023-09-16T19:51:22.741Z,94934.88
2023-09-16T19:54:32.410Z,94931.00
2023-09-16T19:57:47.496Z,94928.78
2023-09-16T20:01:02.403Z,94933.59
2023-09-16T20:04:11.612Z,94931.84
2023-09-16T20:07:20.626Z,94925.81
2023-09-16T20:10:31.146Z,94923.28
2023-09-16T20:13:41.890Z,94919.91
2023-09-16T20:16:54.738Z,94921.88
2023-09-16T20:20:03.558Z,94925.78
2023-09-16T20:23:14.034Z,94921.34
2023-09-16T20:26:27.996Z,94923.69
2023-09-16T20:29:37.955Z,94921.13
2023-09-16T20:32:48.989Z,94921.59
2023-09-16T20:35:58.235Z,94919.88
2023-09-16T20:39:08.080Z,94924.06
2023-09-16T20:42:20.278Z,94925.59
2023-09-16T20:45:30.670Z,94936.81
2023-09-16T20:48:41.623Z,94931.34
2023-09-16T20:51:52.529Z,94938.22
2023-09-16T20:55:01.408Z,94931.69
2023-09-16T20:58:13.487Z,94941.25
2023-09-16T21:01:23.818Z,94938.00
2023-09-16T21:04:35.083Z,94937.66
2023-09-16T21:07:44.747Z,94941.88
2023-09-16T21:10:53.742Z,94938.81
2023-09-16T21:14:05.006Z,94940.34
2023-09-16T21:17:16.015Z,94940.56
2023-09-16T21:20:28.835Z,94943.38
2023-09-16T21:23:37.635Z,94937.41
2023-09-16T21:26:46.643Z,94938.91
2023-09-16T21:29:55.487Z,94939.41
2023-09-16T21:33:09.427Z,94933.34
2023-09-16T21:36:19.721Z,94930.25
2023-09-16T21:39:30.634Z,94928.84
2023-09-16T21:42:39.520Z,94932.22
2023-09-16T21:45:49.180Z,94927.09
2023-09-16T21:49:01.081Z,94931.84
2023-09-16T21:52:11.157Z,94923.69
2023-09-16T21:55:19.840Z,94924.63
2023-09-16T21:58:28.498Z,94927.16
2023-09-16T22:01:38.468Z,94924.47
2023-09-16T22:04:47.220Z,94920.75
2023-09-16T22:07:57.340Z,94916.78
2023-09-16T22:11:05.841Z,94922.72
2023-09-16T22:14:14.342Z,94915.28
2023-09-16T22:17:22.867Z,94918.19
2023-09-16T22:20:31.459Z,94916.78
2023-09-16T22:23:41.405Z,94909.53
2023-09-16T22:26:50.135Z,94919.56
2023-09-16T22:29:59.085Z,94919.09
2023-09-16T22:33:07.777Z,94919.94
2023-09-16T22:36:16.442Z,94917.47
2023-09-16T22:39:26.349Z,94917.59
2023-09-16T22:42:34.974Z,94910.34
2023-09-16T22:45:43.501Z,94920.63
2023-09-16T22:48:51.975Z,94921.56
2023-09-16T22:52:00.536Z,94933.91
2023-09-16T22:55:10.877Z,94926.34
2023-09-16T22:58:19.448Z,94933.56
2023-09-16T23:01:28.056Z,94934.81
2023-09-16T23:04:36.783Z,94933.47
2023-09-16T23:07:45.396Z,94936.09
2023-09-16T23:10:55.286Z,94938.06
2023-09-16T23:14:03.796Z,94930.34
2023-09-16T23:17:12.979Z,94929.06
2023-09-16T23:20:21.774Z,94935.47
2023-09-16T23:23:30.471Z,94929.75
2023-09-16T23:26:40.956Z,94933.84
2023-09-16T23:29:49.483Z,94933.50
2023-09-16T23:32:58.041Z,94938.69
2023-09-16T23:36:06.719Z,94939.84
2023-09-16T23:39:15.440Z,94942.38
2023-09-16T23:42:25.316Z,94935.47
2023-09-16T23:45:33.940Z,94935.78
2023-09-16T23:48:43.347Z,94937.03
2023-09-16T23:51:52.617Z,94940.63
2023-09-16T23:55:01.498Z,94942.72
2023-09-16T23:58:11.365Z,94932.00
